Time;durP1;ratioP1;P1;durP2;ratioP2;P2;SDS_P1;SDS_P2;PMS_P1;PMS_P2;Temp;Humidity;BMP_temperature;BMP_pressure;BME280_temperature;BME280_humidity;BME280_pressure;Samples;Min_cycle;Max_cycle;Signal;HPM_P1;HPM_P2
2021/08/25 00:01:59;;;;;;;;;2.75;2.75;;;;;27.02;38.36;102270.63;5035736;28;45261;-66
2021/08/25 00:04:24;;;;;;;;;2.00;2.00;;;;;27.03;38.74;102262.44;5035229;28;45540;-66
2021/08/25 00:06:49;;;;;;;;;2.50;1.25;;;;;27.03;38.58;102269.63;5035210;28;45215;-65
2021/08/25 00:09:15;;;;;;;;;2.00;2.00;;;;;27.03;38.41;102253.59;5035875;28;45261;-66
2021/08/25 00:11:40;;;;;;;;;2.00;2.00;;;;;27.00;38.56;102253.94;5036817;28;45470;-66
2021/08/25 00:14:06;;;;;;;;;2.25;2.00;;;;;27.03;38.43;102256.25;5035505;28;47065;-66
2021/08/25 00:16:31;;;;;;;;;2.25;2.00;;;;;27.04;38.79;102255.22;5034362;28;45424;-65
2021/08/25 00:18:56;;;;;;;;;3.00;1.50;;;;;27.03;38.33;102259.75;5035197;28;45501;-66
2021/08/25 00:21:22;;;;;;;;;2.25;2.25;;;;;27.02;38.60;102255.41;5035460;28;45554;-65
2021/08/25 00:23:47;;;;;;;;;3.00;2.75;;;;;27.02;38.68;102243.91;5018063;28;46041;-65
2021/08/25 00:26:12;;;;;;;;;2.50;2.50;;;;;27.03;38.57;102245.56;5036459;28;45323;-66
2021/08/25 00:28:38;;;;;;;;;2.00;2.00;;;;;27.02;38.74;102247.41;5034732;28;45510;-66
2021/08/25 00:31:03;;;;;;;;;2.00;2.00;;;;;27.02;38.39;102244.75;5018623;28;45598;-66
2021/08/25 00:33:28;;;;;;;;;2.75;1.25;;;;;27.02;38.84;102234.06;5033391;28;45437;-65
2021/08/25 00:35:54;;;;;;;;;2.00;2.00;;;;;27.03;38.72;102232.22;5035530;28;45560;-65
2021/08/25 00:38:19;;;;;;;;;3.00;2.00;;;;;27.03;38.72;102237.56;5035179;28;45510;-66
2021/08/25 00:40:44;;;;;;;;;2.00;2.00;;;;;27.03;38.04;102233.06;5034835;28;45381;-66
2021/08/25 00:43:11;;;;;;;;;3.50;1.25;;;;;27.05;38.42;102224.84;5034211;28;45347;-66
2021/08/25 00:45:37;;;;;;;;;2.25;2.25;;;;;27.04;38.28;102234.69;5034742;28;45364;-66
2021/08/25 00:48:04;;;;;;;;;3.50;3.00;;;;;27.04;38.76;102226.69;5034938;28;45286;-66
2021/08/25 00:50:30;;;;;;;;;4.50;3.00;;;;;27.03;39.17;102221.53;5036926;28;45558;-65
2021/08/25 00:52:55;;;;;;;;;2.00;2.00;;;;;27.05;38.63;102227.53;5034134;28;45927;-65
2021/08/25 00:55:20;;;;;;;;;3.25;1.75;;;;;27.06;38.64;102222.00;5034528;28;45434;-66
2021/08/25 00:57:46;;;;;;;;;2.00;2.00;;;;;27.06;38.80;102223.84;5034219;28;45397;-65
2021/08/25 01:00:13;;;;;;;;;2.00;2.00;;;;;27.05;38.63;102219.50;5034728;28;46035;-67
2021/08/25 01:02:51;;;;;;;;;2.25;2.00;;;;;27.05;38.60;102224.84;5036312;28;45474;-66
2021/08/25 01:05:17;;;;;;;;;2.75;2.75;;;;;27.03;38.47;102195.66;5036255;28;45353;-66
2021/08/25 01:07:44;;;;;;;;;2.00;2.00;;;;;27.04;38.65;102216.00;5034321;28;45443;-66
2021/08/25 01:10:30;;;;;;;;;3.00;3.00;;;;;27.03;38.41;102216.19;5034429;28;45295;-66
2021/08/25 01:12:59;;;;;;;;;3.00;3.00;;;;;27.03;38.84;102202.84;5032192;28;46055;-66
2021/08/25 01:15:29;;;;;;;;;6.50;4.25;;;;;27.03;38.38;102206.34;5032844;28;45480;-65
2021/08/25 01:18:00;;;;;;;;;2.00;2.00;;;;;27.02;38.40;102211.84;5034426;28;45306;-65
2021/08/25 01:20:27;;;;;;;;;3.75;2.75;;;;;27.02;38.80;102206.50;5035503;28;45365;-65
2021/08/25 01:22:53;;;;;;;;;2.00;2.00;;;;;27.00;38.46;102209.38;5033959;28;45356;-65
2021/08/25 01:25:22;;;;;;;;;2.00;2.00;;;;;27.00;38.88;102209.38;5034013;28;45574;-65
2021/08/25 01:27:52;;;;;;;;;2.00;2.00;;;;;27.01;38.39;102211.00;5033705;28;45352;-66
2021/08/25 01:30:19;;;;;;;;;2.25;2.25;;;;;26.99;38.87;102205.03;5034164;28;45317;-66
2021/08/25 01:32:45;;;;;;;;;2.00;2.00;;;;;27.01;38.47;102211.00;5035020;28;45181;-66
2021/08/25 01:35:10;;;;;;;;;2.75;2.75;;;;;27.00;38.61;102209.38;5035016;28;45241;-66
2021/08/25 01:37:36;;;;;;;;;4.25;3.25;;;;;26.99;38.48;102207.69;5034034;28;45267;-66
2021/08/25 01:40:02;;;;;;;;;2.00;2.00;;;;;27.00;38.50;102206.72;5033991;28;45541;-65
2021/08/25 01:42:27;;;;;;;;;2.25;2.00;;;;;27.00;38.76;102203.19;5033440;28;46294;-65
2021/08/25 01:44:53;;;;;;;;;3.00;3.00;;;;;27.00;38.39;102197.84;5033545;28;45413;-66
2021/08/25 01:47:22;;;;;;;;;2.00;2.00;;;;;27.00;38.76;102187.19;5036172;28;45439;-66
2021/08/25 01:49:50;;;;;;;;;4.00;4.00;;;;;27.00;38.48;102197.84;5033905;28;45814;-65
2021/08/25 01:52:16;;;;;;;;;4.00;2.00;;;;;26.98;38.14;102189.19;5032022;28;46160;-66
2021/08/25 01:54:43;;;;;;;;;2.25;2.25;;;;;27.00;38.53;102193.34;5031905;28;45422;-66
2021/08/25 01:57:09;;;;;;;;;2.00;2.00;;;;;27.01;38.97;102196.84;5033594;28;45511;-66
2021/08/25 01:59:37;;;;;;;;;2.25;2.25;;;;;27.01;38.87;102194.19;5031608;28;45523;-66
2021/08/25 02:02:03;;;;;;;;;2.00;2.00;;;;;27.02;38.57;102199.34;5032316;28;45301;-65
2021/08/25 02:04:28;;;;;;;;;3.25;2.25;;;;;27.00;38.88;102196.03;5033305;28;45482;-66
2021/08/25 02:06:54;;;;;;;;;3.75;3.00;;;;;27.02;38.89;102194.00;5033529;28;45363;-66
2021/08/25 02:09:20;;;;;;;;;4.25;3.00;;;;;27.01;38.71;102195.00;5033726;28;45652;-65
2021/08/25 02:11:45;;;;;;;;;3.25;2.00;;;;;27.01;38.39;102195.00;5034318;28;47224;-66
2021/08/25 02:14:10;;;;;;;;;3.00;2.00;;;;;27.02;39.05;102196.66;5034406;28;45295;-65
2021/08/25 02:16:36;;;;;;;;;2.75;2.75;;;;;27.02;38.36;102188.66;5033399;28;45569;-65
2021/08/25 02:19:01;;;;;;;;;2.25;2.25;;;;;27.03;38.67;102189.50;5033341;28;45268;-65
2021/08/25 02:21:26;;;;;;;;;3.00;3.00;;;;;26.97;38.47;102177.69;5033605;28;45658;-66
2021/08/25 02:23:52;;;;;;;;;3.00;3.00;;;;;27.02;38.50;102177.13;5033299;28;45559;-65
2021/08/25 02:26:17;;;;;;;;;3.00;1.75;;;;;27.01;38.90;102184.31;5035037;28;45519;-66
2021/08/25 02:28:51;;;;;;;;;2.00;2.00;;;;;27.02;38.61;102174.47;5033273;28;45731;-69
2021/08/25 02:31:17;;;;;;;;;2.25;2.25;;;;;27.01;38.94;102176.28;5031523;28;45359;-65
2021/08/25 02:33:43;;;;;;;;;5.00;3.00;;;;;27.02;38.43;102174.47;5031505;28;45442;-66
2021/08/25 02:36:09;;;;;;;;;3.50;2.00;;;;;27.01;38.63;102176.28;5033472;28;45430;-66
2021/08/25 02:38:37;;;;;;;;;3.00;3.00;;;;;27.01;38.66;102175.50;5032211;28;45419;-66
2021/08/25 02:41:04;;;;;;;;;2.00;2.00;;;;;27.00;38.70;102169.31;5039298;28;46323;-65
2021/08/25 02:43:30;;;;;;;;;3.25;2.00;;;;;27.01;38.88;102172.81;5039439;28;45584;-65
2021/08/25 02:45:56;;;;;;;;;2.00;2.00;;;;;26.99;38.55;102164.97;5039635;28;45270;-65
2021/08/25 02:48:22;;;;;;;;;2.00;2.00;;;;;27.00;38.46;102174.66;5039728;28;45214;-65
2021/08/25 02:50:47;;;;;;;;;2.50;2.50;;;;;26.99;38.42;102167.63;5040514;28;45535;-65
2021/08/25 02:53:12;;;;;;;;;3.00;3.00;;;;;26.96;38.86;102160.00;5040359;28;45484;-65
2021/08/25 02:55:38;;;;;;;;;1.75;1.75;;;;;26.98;38.81;102157.16;5039551;28;45321;-66
2021/08/25 02:58:03;;;;;;;;;3.00;3.00;;;;;26.97;38.82;102164.34;5039608;28;45450;-66
2021/08/25 03:00:29;;;;;;;;;1.00;1.00;;;;;26.98;38.36;102163.34;5039541;28;45466;-68
2021/08/25 03:02:54;;;;;;;;;2.00;2.00;;;;;26.95;38.72;102161.03;5039389;28;45725;-65
2021/08/25 03:05:20;;;;;;;;;4.25;2.75;;;;;26.98;38.76;102165.16;5041674;28;45483;-66
2021/08/25 03:07:45;;;;;;;;;2.00;2.00;;;;;26.97;38.79;102161.66;5038959;28;45478;-65
2021/08/25 03:10:11;;;;;;;;;3.00;3.00;;;;;26.98;38.94;102157.16;5037798;28;45391;-66
2021/08/25 03:12:37;;;;;;;;;0.00;0.00;;;;;26.98;38.91;102159.81;5038026;28;45425;-65
2021/08/25 03:15:05;;;;;;;;;2.25;2.25;;;;;26.99;38.53;102159.63;5039532;28;45487;-65
2021/08/25 03:17:31;;;;;;;;;3.00;3.00;;;;;26.98;38.79;102157.16;5041386;28;45623;-66
2021/08/25 03:19:56;;;;;;;;;2.50;2.50;;;;;26.99;38.41;102154.28;5038937;28;45999;-65
2021/08/25 03:22:22;;;;;;;;;3.00;3.00;;;;;26.99;38.59;102154.28;5038841;28;45369;-66
2021/08/25 03:24:48;;;;;;;;;1.00;1.00;;;;;27.00;38.77;102165.81;5039164;28;45432;-66
2021/08/25 03:27:13;;;;;;;;;3.00;3.00;;;;;27.00;38.66;102155.97;5039312;28;45497;-66
2021/08/25 03:29:38;;;;;;;;;5.00;3.25;;;;;27.01;38.59;102162.94;5040975;28;46041;-66
2021/08/25 03:32:04;;;;;;;;;2.50;2.00;;;;;27.01;38.33;102160.28;5039413;28;45355;-66
2021/08/25 03:34:29;;;;;;;;;3.25;3.25;;;;;27.00;38.67;102158.63;5039183;28;45560;-66
2021/08/25 03:36:55;;;;;;;;;2.50;2.50;;;;;27.00;38.77;102158.63;5038763;28;45397;-65
2021/08/25 03:39:20;;;;;;;;;3.00;3.00;;;;;26.99;38.39;102151.63;5039072;28;45532;-66
2021/08/25 03:41:45;;;;;;;;;2.50;2.50;;;;;26.99;38.77;102156.97;5040259;28;45362;-66
2021/08/25 03:44:11;;;;;;;;;2.00;2.00;;;;;26.99;38.54;102159.63;5039937;28;45437;-66
2021/08/25 03:46:37;;;;;;;;;3.25;2.00;;;;;26.96;38.49;102150.13;5038984;28;45393;-66
2021/08/25 03:49:03;;;;;;;;;3.75;2.00;;;;;26.99;38.63;102150.78;5036242;28;46151;-66
2021/08/25 03:51:29;;;;;;;;;3.00;3.00;;;;;26.98;38.48;102152.66;5033407;28;45248;-66
2021/08/25 03:53:54;;;;;;;;;1.50;1.25;;;;;26.97;38.46;102148.31;5035425;28;45612;-66
2021/08/25 03:56:19;;;;;;;;;1.75;1.75;;;;;26.97;38.70;102145.63;5037773;28;45350;-66
2021/08/25 03:58:45;;;;;;;;;1.75;1.75;;;;;26.97;38.71;102150.97;5035309;28;46337;-65
2021/08/25 04:01:10;;;;;;;;;2.00;2.00;;;;;26.96;38.84;102152.81;5035551;28;45564;-66
2021/08/25 04:03:35;;;;;;;;;3.00;3.00;;;;;26.96;38.38;102154.66;5035527;28;45223;-66
2021/08/25 04:06:03;;;;;;;;;3.25;3.25;;;;;26.96;38.57;102151.97;5035295;28;45865;-66
2021/08/25 04:08:28;;;;;;;;;2.00;2.00;;;;;26.96;38.94;102143.97;5037364;28;46921;-66
2021/08/25 04:10:53;;;;;;;;;4.00;3.00;;;;;26.95;38.58;102153.84;5035140;28;45349;-66
2021/08/25 04:13:19;;;;;;;;;3.25;2.50;;;;;26.96;38.78;102150.13;5035319;28;45577;-66
2021/08/25 04:15:44;;;;;;;;;2.00;2.00;;;;;26.92;38.59;102138.19;5040037;22;45463;-69
2021/08/25 04:18:09;;;;;;;;;2.50;2.50;;;;;26.96;38.40;102147.47;5016856;28;46487;-69
2021/08/25 04:20:35;;;;;;;;;2.75;2.75;;;;;26.96;38.66;102143.97;5017229;28;45375;-69
2021/08/25 04:23:00;;;;;;;;;2.00;2.00;;;;;26.96;38.43;102136.78;5016968;28;45677;-69
2021/08/25 04:25:25;;;;;;;;;2.00;2.00;;;;;26.96;38.63;102144.81;5016606;28;45536;-69
2021/08/25 04:27:51;;;;;;;;;2.25;2.25;;;;;26.96;38.61;102147.47;5016542;28;46088;-69
2021/08/25 04:30:16;;;;;;;;;1.00;1.00;;;;;26.97;38.56;102156.31;5016760;28;46003;-69
2021/08/25 04:32:41;;;;;;;;;2.00;2.00;;;;;26.97;38.42;102145.63;5017175;28;45263;-69
2021/08/25 04:35:07;;;;;;;;;3.50;2.25;;;;;26.93;38.56;102137.16;5016557;28;45614;-69
2021/08/25 04:37:33;;;;;;;;;2.50;2.25;;;;;26.96;38.39;102160.81;5016331;28;46517;-69
2021/08/25 04:39:59;;;;;;;;;2.75;2.75;;;;;26.98;38.98;102159.81;5016505;28;45243;-69
2021/08/25 04:42:24;;;;;;;;;5.50;4.50;;;;;26.97;38.36;102164.34;5016545;28;45653;-69
2021/08/25 04:44:49;;;;;;;;;2.00;2.00;;;;;26.87;38.45;102145.91;5016601;28;45339;-69
2021/08/25 04:47:15;;;;;;;;;2.75;2.75;;;;;26.98;38.81;102167.84;5003521;28;46998;-69
2021/08/25 04:49:40;;;;;;;;;4.00;4.00;;;;;26.98;38.27;102166.00;5016023;28;45396;-69
2021/08/25 04:52:06;;;;;;;;;4.75;4.00;;;;;26.98;38.48;102158.00;5016451;28;45485;-70
2021/08/25 04:54:31;;;;;;;;;4.00;4.00;;;;;26.99;38.71;102161.47;5016634;28;45315;-69
2021/08/25 04:56:56;;;;;;;;;2.50;2.00;;;;;26.95;38.71;102158.34;5016258;28;45351;-69
2021/08/25 04:59:22;;;;;;;;;1.50;1.50;;;;;26.96;38.57;102152.81;5017026;28;45415;-69
2021/08/25 05:01:47;;;;;;;;;3.00;3.00;;;;;26.98;38.63;102160.66;5015971;28;45451;-69
2021/08/25 05:04:12;;;;;;;;;3.00;3.00;;;;;26.99;38.42;102166.81;5015718;28;45590;-69
2021/08/25 05:06:39;;;;;;;;;2.00;2.00;;;;;26.99;38.32;102156.97;5016065;28;46926;-69
2021/08/25 05:09:05;;;;;;;;;2.00;2.00;;;;;27.00;38.48;102163.97;5016069;28;45574;-69
2021/08/25 05:11:30;;;;;;;;;3.50;3.50;;;;;27.00;38.42;102155.13;5016721;28;45564;-69
2021/08/25 05:13:55;;;;;;;;;1.75;1.75;;;;;27.00;38.80;102155.97;5016084;28;45343;-69
2021/08/25 05:16:21;;;;;;;;;2.25;2.00;;;;;26.96;38.50;102160.00;5015393;28;52788;-69
2021/08/25 05:18:46;;;;;;;;;4.25;3.00;;;;;26.99;38.60;102159.63;5015468;28;45306;-69
2021/08/25 05:21:11;;;;;;;;;2.00;2.00;;;;;26.99;38.45;102148.94;5016207;28;45418;-69
2021/08/25 05:23:37;;;;;;;;;2.00;2.00;;;;;27.00;38.21;102149.78;5016632;28;45277;-69
2021/08/25 05:26:03;;;;;;;;;3.00;3.00;;;;;26.99;38.54;102150.78;5002258;28;47119;-69
2021/08/25 05:28:29;;;;;;;;;2.50;2.50;;;;;26.95;38.76;102145.00;5015712;28;45209;-69
2021/08/25 05:30:54;;;;;;;;;3.00;2.00;;;;;26.99;38.56;102156.13;5015556;28;45436;-69
2021/08/25 05:33:19;;;;;;;;;2.00;2.00;;;;;26.96;38.36;102154.66;5015592;28;45348;-69
2021/08/25 05:35:46;;;;;;;;;2.00;2.00;;;;;26.98;38.48;102157.16;5000985;28;47118;-69
2021/08/25 05:38:11;;;;;;;;;3.00;3.00;;;;;26.95;38.30;102155.69;5015191;28;45315;-69
2021/08/25 05:40:37;;;;;;;;;2.00;2.00;;;;;26.92;38.28;102148.03;5015669;28;45323;-69
2021/08/25 05:43:02;;;;;;;;;3.00;3.00;;;;;26.95;38.55;102153.84;5015482;28;45533;-69
2021/08/25 05:45:27;;;;;;;;;2.00;2.00;;;;;26.96;38.50;102160.81;5015331;28;46060;-69
2021/08/25 05:47:56;;;;;;;;;3.00;3.00;;;;;26.97;38.75;102161.66;5015293;28;45347;-69
2021/08/25 05:50:21;;;;;;;;;3.00;3.00;;;;;26.98;38.71;102151.81;5014489;28;45342;-69
2021/08/25 05:52:47;;;;;;;;;4.00;4.00;;;;;26.95;38.55;102161.84;5015407;28;45455;-70
2021/08/25 05:55:12;;;;;;;;;3.00;2.00;;;;;26.94;38.30;102159.34;5015191;28;46943;-69
2021/08/25 05:57:45;;;;;;;;;3.00;3.00;;;;;26.96;38.51;102160.81;5015284;28;45513;-69
2021/08/25 06:00:11;;;;;;;;;2.50;2.50;;;;;26.97;38.17;102169.69;5000305;28;45450;-69
2021/08/25 06:02:36;;;;;;;;;2.00;2.00;;;;;26.97;38.62;102159.00;5015581;28;45299;-70
2021/08/25 06:05:02;;;;;;;;;2.75;1.50;;;;;26.97;38.15;102164.34;5014910;28;45267;-69
2021/08/25 06:07:27;;;;;;;;;4.75;3.25;;;;;26.94;38.42;102176.22;5015103;28;45503;-69
2021/08/25 06:09:52;;;;;;;;;4.00;4.00;;;;;26.94;38.72;102165.53;5015212;28;45291;-70
2021/08/25 06:12:18;;;;;;;;;2.25;2.25;;;;;26.94;38.17;102157.50;5015231;28;46025;-69
2021/08/25 06:14:43;;;;;;;;;4.00;3.00;;;;;26.94;38.51;102154.84;5014255;28;46127;-69
2021/08/25 06:17:08;;;;;;;;;4.00;4.00;;;;;26.95;38.76;102159.19;5015081;28;45418;-69
2021/08/25 06:19:34;;;;;;;;;3.00;3.00;;;;;26.94;38.44;102156.69;5015058;28;45355;-70
2021/08/25 06:21:59;;;;;;;;;3.50;3.50;;;;;26.94;38.28;102160.19;5015191;28;45556;-69
2021/08/25 06:24:25;;;;;;;;;4.00;4.00;;;;;26.90;38.50;102169.59;5014744;28;45343;-69
2021/08/25 06:26:50;;;;;;;;;3.00;3.00;;;;;26.95;38.56;102163.69;5015077;28;45374;-69
2021/08/25 06:29:15;;;;;;;;;3.00;3.00;;;;;26.94;38.30;102172.69;5015443;28;45280;-70
2021/08/25 06:31:41;;;;;;;;;3.00;3.00;;;;;26.95;38.68;102166.34;5014495;28;45283;-69
2021/08/25 06:34:06;;;;;;;;;1.75;1.75;;;;;26.95;38.57;102161.84;5014619;28;47284;-69
2021/08/25 06:36:31;;;;;;;;;4.50;2.25;;;;;26.96;38.36;102171.50;5014969;28;45383;-69
2021/08/25 06:38:57;;;;;;;;;2.00;2.00;;;;;26.98;38.77;102170.50;5014989;28;45331;-69
2021/08/25 06:41:22;;;;;;;;;2.75;2.75;;;;;26.90;38.38;102158.91;5015766;28;45307;-69
2021/08/25 06:43:47;;;;;;;;;2.00;2.00;;;;;26.94;38.62;102156.69;5014395;28;46918;-69
2021/08/25 06:46:13;;;;;;;;;3.25;2.25;;;;;26.97;38.49;102167.00;5014088;28;45575;-69
2021/08/25 06:48:38;;;;;;;;;3.00;3.00;;;;;26.98;38.21;102160.66;5014674;28;45413;-69
2021/08/25 06:51:04;;;;;;;;;3.50;1.00;;;;;26.99;38.21;102161.47;5014929;28;45524;-69
2021/08/25 06:53:31;;;;;;;;;2.75;2.75;;;;;27.00;38.21;102160.47;5015000;28;45450;-69
2021/08/25 06:55:57;;;;;;;;;2.00;2.00;;;;;27.00;38.31;102163.13;5014605;28;45466;-69
2021/08/25 06:58:24;;;;;;;;;3.00;3.00;;;;;26.93;38.27;102155.03;5014422;28;45401;-69
2021/08/25 07:00:50;;;;;;;;;2.75;2.75;;;;;27.01;38.47;102170.97;5014079;28;45455;-69
2021/08/25 07:03:15;;;;;;;;;2.25;2.00;;;;;27.00;38.41;102177.31;5014158;28;46485;-69
2021/08/25 07:05:41;;;;;;;;;2.50;2.50;;;;;27.00;38.37;102165.81;5014861;28;45413;-69
2021/08/25 07:08:06;;;;;;;;;4.75;3.75;;;;;26.92;38.64;102156.03;5014489;28;45342;-70
2021/08/25 07:10:32;;;;;;;;;2.25;2.25;;;;;27.01;38.68;102173.63;5014343;28;45279;-69
2021/08/25 07:12:57;;;;;;;;;6.50;2.50;;;;;27.01;38.30;102178.16;4999521;28;48156;-69
2021/08/25 07:15:22;;;;;;;;;2.00;2.00;;;;;27.01;38.34;102176.28;5013839;28;45528;-69
2021/08/25 07:17:48;;;;;;;;;2.00;2.00;;;;;27.00;38.39;102174.66;5014645;28;45336;-69
2021/08/25 07:20:14;;;;;;;;;2.00;2.00;;;;;27.00;38.41;102182.66;5014677;28;45397;-69
2021/08/25 07:22:40;;;;;;;;;2.50;2.50;;;;;27.00;38.61;102184.50;5014058;28;47428;-70
2021/08/25 07:25:07;;;;;;;;;2.00;1.50;;;;;27.00;38.30;102190.69;5014857;28;45364;-69
2021/08/25 07:27:33;;;;;;;;;3.75;3.75;;;;;27.00;38.47;102185.34;5017930;28;45381;-69
2021/08/25 07:29:59;;;;;;;;;3.00;3.00;;;;;27.00;38.52;102189.84;5017649;28;45482;-69
2021/08/25 07:32:24;;;;;;;;;4.25;2.75;;;;;26.99;38.56;102183.66;5017856;28;46429;-69
2021/08/25 07:34:49;;;;;;;;;2.00;2.00;;;;;26.82;38.35;102153.63;5017355;28;45830;-69
2021/08/25 07:37:15;;;;;;;;;2.00;2.00;;;;;26.96;38.55;102176.00;5017702;28;45323;-69
2021/08/25 07:39:40;;;;;;;;;2.00;2.00;;;;;26.98;38.49;102171.34;5017560;28;45349;-69
2021/08/25 07:42:05;;;;;;;;;3.00;3.00;;;;;27.01;38.30;102173.63;5017449;28;45767;-70
2021/08/25 07:44:31;;;;;;;;;4.00;3.00;;;;;26.93;38.78;102157.72;5017505;28;45355;-69
2021/08/25 07:46:56;;;;;;;;;3.00;3.00;;;;;26.99;38.62;102162.31;5003935;28;45974;-70
2021/08/25 07:49:23;;;;;;;;;3.75;2.25;;;;;27.01;38.53;102164.81;5017282;28;45576;-69
2021/08/25 07:51:48;;;;;;;;;4.00;4.00;;;;;27.01;38.30;102162.13;5017226;28;46409;-69
2021/08/25 07:54:14;;;;;;;;;2.50;2.00;;;;;27.00;38.58;102169.31;5017162;28;45537;-69
2021/08/25 07:56:39;;;;;;;;;4.25;2.75;;;;;27.01;38.67;102168.28;5017837;28;45437;-69
2021/08/25 07:59:05;;;;;;;;;1.25;1.25;;;;;27.01;38.48;102162.94;5016986;28;45521;-69
2021/08/25 08:01:31;;;;;;;;;2.75;2.75;;;;;27.03;38.40;102166.28;5017013;28;46102;-69
2021/08/25 08:03:56;;;;;;;;;2.00;2.00;;;;;27.03;38.73;102160.09;5016930;28;45488;-69
2021/08/25 08:06:21;;;;;;;;;4.00;4.00;;;;;26.90;38.61;102140.22;5017074;28;46119;-69
2021/08/25 08:08:47;;;;;;;;;2.50;2.50;;;;;26.95;38.63;102137.81;5017570;28;45432;-69
2021/08/25 08:11:13;;;;;;;;;2.00;2.00;;;;;27.04;38.55;102156.41;5017361;28;46366;-69
2021/08/25 08:13:38;;;;;;;;;4.00;2.75;;;;;27.05;38.60;102152.75;5007390;28;46138;-69
2021/08/25 08:16:03;;;;;;;;;4.50;3.00;;;;;27.05;38.39;102150.91;5016845;28;45321;-69
2021/08/25 08:18:37;;;;;;;;;2.75;2.75;;;;;27.07;38.77;102156.03;5017038;28;45268;-69
2021/08/25 08:21:03;;;;;;;;;2.00;2.00;;;;;27.07;39.09;102166.72;5016855;28;46686;-69
2021/08/25 08:23:30;;;;;;;;;3.00;1.00;;;;;26.95;38.19;102131.66;5017331;28;45307;-69
2021/08/25 08:25:56;;;;;;;;;4.00;4.00;;;;;27.06;38.65;102152.53;5016918;28;45524;-69
2021/08/25 08:28:21;;;;;;;;;4.00;4.00;;;;;27.03;38.24;102149.44;5016333;28;45620;-69
2021/08/25 08:30:47;;;;;;;;;4.25;4.25;;;;;27.07;38.77;102156.88;5016530;28;46457;-69
2021/08/25 08:33:12;;;;;;;;;3.00;3.00;;;;;27.07;38.27;102154.22;5016740;28;45318;-69
2021/08/25 08:35:38;;;;;;;;;2.00;2.00;;;;;27.07;38.37;102150.72;5017448;28;45451;-70
2021/08/25 08:38:05;;;;;;;;;2.75;2.50;;;;;27.07;38.24;102154.22;5015955;28;45337;-69
2021/08/25 08:40:31;;;;;;;;;3.00;3.00;;;;;27.01;38.51;102138.91;5016420;28;46265;-70
2021/08/25 08:43:08;;;;;;;;;6.00;2.75;;;;;27.10;38.75;102152.19;5015899;28;45330;-69
2021/08/25 08:45:38;;;;;;;;;3.00;2.25;;;;;27.07;38.62;102140.84;5016537;28;45541;-69
2021/08/25 08:48:07;;;;;;;;;3.00;3.00;;;;;27.09;38.20;102145.19;5016623;28;45469;-69
2021/08/25 08:50:34;;;;;;;;;3.00;3.00;;;;;27.06;38.63;102143.72;5016911;28;45970;-69
2021/08/25 08:52:59;;;;;;;;;3.25;3.00;;;;;27.09;38.23;102142.53;5016201;28;45622;-70
2021/08/25 08:55:25;;;;;;;;;2.00;2.00;;;;;27.09;38.49;102145.19;5016392;28;46502;-70
2021/08/25 08:57:50;;;;;;;;;3.00;3.00;;;;;27.10;38.53;102138.81;5016026;28;46095;-69
2021/08/25 09:00:16;;;;;;;;;5.00;2.25;;;;;27.08;38.37;102139.03;5016267;28;46189;-70
2021/08/25 09:02:43;;;;;;;;;2.50;2.50;;;;;27.09;38.27;102139.84;5016469;28;45482;-70
2021/08/25 09:05:18;;;;;;;;;2.50;2.00;;;;;27.09;38.50;102143.34;5016427;28;45866;-69
2021/08/25 09:07:54;;;;;;;;;2.50;2.50;;;;;27.09;38.44;102135.31;5016144;28;45567;-69
2021/08/25 09:10:25;;;;;;;;;2.50;2.50;;;;;27.10;38.01;102146.84;5015268;28;46223;-69
2021/08/25 09:12:53;;;;;;;;;1.75;1.75;;;;;27.09;38.33;102143.34;5015728;28;45325;-69
2021/08/25 09:15:24;;;;;;;;;2.75;2.50;;;;;27.09;38.38;102147.88;5015843;28;45331;-70
2021/08/25 09:18:01;;;;;;;;;2.50;2.00;;;;;27.09;38.70;102138.00;5016115;28;45331;-69
2021/08/25 09:20:29;;;;;;;;;3.00;2.00;;;;;27.10;38.35;102144.16;5015094;28;46844;-69
2021/08/25 09:23:19;;;;;;;;;1.25;1.25;;;;;27.11;38.27;102148.50;5015621;28;45519;-69
2021/08/25 09:25:47;;;;;;;;;2.75;2.75;;;;;27.09;38.66;102147.88;5015412;28;45403;-69
2021/08/25 09:28:15;;;;;;;;;2.75;1.50;;;;;27.10;38.78;102137.00;5015908;28;45502;-69
2021/08/25 09:30:55;;;;;;;;;2.25;2.00;;;;;27.12;38.67;102137.63;5015537;28;46148;-69
2021/08/25 09:33:26;;;;;;;;;3.00;3.00;;;;;27.13;38.59;102136.66;5001538;28;45462;-69
2021/08/25 09:35:58;;;;;;;;;3.75;3.00;;;;;27.14;38.27;102129.47;5015919;28;45406;-69
2021/08/25 09:38:24;;;;;;;;;3.00;2.00;;;;;27.15;38.24;102144.47;5014628;28;45457;-69
2021/08/25 09:40:56;;;;;;;;;3.75;2.00;;;;;27.15;38.10;102147.16;5014876;28;46085;-69
2021/08/25 09:43:32;;;;;;;;;2.50;2.50;;;;;27.15;38.59;102144.47;5015235;28;45407;-70
2021/08/25 09:46:11;;;;;;;;;3.00;3.00;;;;;27.14;38.03;102146.31;5015410;28;45571;-69
2021/08/25 09:48:40;;;;;;;;;2.00;2.00;;;;;27.14;38.08;102148.97;5014327;28;45437;-70
2021/08/25 09:51:06;;;;;;;;;3.00;3.00;;;;;27.14;38.32;102140.16;5015454;28;46192;-69
2021/08/25 09:53:32;;;;;;;;;4.25;4.00;;;;;27.06;38.54;102127.69;5015789;28;45411;-69
2021/08/25 09:55:57;;;;;;;;;1.00;1.00;;;;;27.14;38.32;102140.97;5015249;28;45531;-69
2021/08/25 09:58:24;;;;;;;;;3.50;3.00;;;;;27.15;38.52;102131.97;5015211;28;45281;-69
2021/08/25 10:00:52;;;;;;;;;3.25;3.00;;;;;27.15;38.27;102131.13;5015144;28;45413;-69
2021/08/25 10:03:17;;;;;;;;;3.75;3.00;;;;;27.13;38.23;102123.31;5015154;28;45520;-70
2021/08/25 10:05:46;;;;;;;;;2.75;2.75;;;;;27.14;38.23;102113.44;5015738;28;45455;-69
2021/08/25 10:08:13;;;;;;;;;2.75;2.75;;;;;27.13;37.85;102111.78;5014342;28;45551;-68
2021/08/25 10:10:38;;;;;;;;;4.25;3.00;;;;;27.13;38.00;102119.78;5014781;28;46227;-69
2021/08/25 10:13:04;;;;;;;;;4.00;3.00;;;;;27.14;37.98;102118.78;5014757;28;48815;-69
2021/08/25 10:15:41;;;;;;;;;3.00;3.00;;;;;27.14;38.05;102108.09;5015058;28;45489;-69
2021/08/25 10:18:30;;;;;;;;;4.75;3.00;;;;;27.14;38.48;102118.78;5015182;28;45629;-69
2021/08/25 10:20:57;;;;;;;;;2.00;2.00;;;;;27.14;38.33;102108.91;5013253;28;46202;-69
2021/08/25 10:24:08;;;;;;;;;4.00;3.75;;;;;27.14;38.10;102102.75;5015123;28;45398;-69
2021/08/25 10:26:59;;;;;;;;;2.00;2.00;;;;;27.11;37.93;102100.44;5008034;28;45481;-69
2021/08/25 10:29:26;;;;;;;;;2.00;2.00;;;;;27.13;38.16;102098.44;5014028;28;45440;-69
2021/08/25 10:31:57;;;;;;;;;4.00;3.00;;;;;27.13;37.97;102099.25;5014663;28;46386;-69
2021/08/25 10:34:25;;;;;;;;;3.00;3.00;;;;;27.13;38.49;102111.78;5014587;28;45455;-69
2021/08/25 10:36:52;;;;;;;;;5.00;3.75;;;;;27.13;38.37;102106.44;5014773;28;45389;-69
2021/08/25 10:39:29;;;;;;;;;3.50;2.25;;;;;27.13;37.91;102099.25;5014656;28;45447;-69
2021/08/25 10:41:55;;;;;;;;;4.50;3.50;;;;;27.10;38.32;102091.59;5014618;28;46263;-69
2021/08/25 10:47:10;;;;;;;;;3.50;3.25;;;;;27.14;38.45;102082.19;5014872;28;45466;-69
2021/08/25 10:49:37;;;;;;;;;2.00;2.00;;;;;27.14;38.13;102078.72;5014704;28;45538;-69
2021/08/25 10:52:14;;;;;;;;;3.25;2.00;;;;;27.14;37.85;102068.84;5000221;28;46207;-69
2021/08/25 10:54:50;;;;;;;;;2.00;2.00;;;;;27.14;38.29;102076.84;5014350;28;45381;-69
2021/08/25 10:57:21;;;;;;;;;2.25;2.25;;;;;27.14;38.15;102076.84;4999954;28;45310;-69
2021/08/25 10:59:46;;;;;;;;;2.00;2.00;;;;;27.15;38.06;102072.34;5015216;28;45457;-69
2021/08/25 11:02:12;;;;;;;;;3.00;3.00;;;;;27.11;38.27;102049.69;5018368;28;46157;-69
2021/08/25 11:04:38;;;;;;;;;2.00;2.00;;;;;27.13;38.35;102058.34;5017848;28;45402;-69
2021/08/25 11:07:12;;;;;;;;;3.00;3.00;;;;;27.16;38.09;102069.50;5017776;28;45264;-69
2021/08/25 11:09:45;;;;;;;;;4.00;3.00;;;;;27.16;38.03;102066.00;5017835;28;45414;-69
2021/08/25 11:12:22;;;;;;;;;2.75;2.75;;;;;27.17;37.86;102064.97;5002207;28;46319;-69
2021/08/25 11:14:55;;;;;;;;;3.00;3.00;;;;;27.14;38.28;102070.72;5017819;28;45292;-69
2021/08/25 11:17:22;;;;;;;;;2.75;2.75;;;;;27.16;37.95;102068.69;5016413;28;45866;-69
2021/08/25 11:20:13;;;;;;;;;3.50;3.50;;;;;27.15;38.08;102057.16;5017820;28;45458;-69
2021/08/25 11:22:44;;;;;;;;;2.75;2.75;;;;;27.15;38.24;102061.66;5012393;28;46150;-69
2021/08/25 11:25:16;;;;;;;;;3.00;3.00;;;;;27.16;38.00;102055.31;5017608;28;45542;-69
2021/08/25 11:27:51;;;;;;;;;2.00;2.00;;;;;27.14;37.83;102052.81;5017679;28;45492;-69